sensor_id;sensor_type;location;lat;lon;timestamp;pressure;altitude;pressure_sealevel;temperature
58929;BMP180;44713;53.378;10.022;2023-06-22T00:01:00;101738.00;;;18.40
58929;BMP180;44713;53.378;10.022;2023-06-22T00:03:25;101742.00;;;18.40
58929;BMP180;44713;53.378;10.022;2023-06-22T00:05:51;101742.00;;;18.40
58929;BMP180;44713;53.378;10.022;2023-06-22T00:08:17;101731.00;;;18.40
58929;BMP180;44713;53.378;10.022;2023-06-22T00:10:43;101729.00;;;18.30
58929;BMP180;44713;53.378;10.022;2023-06-22T00:13:10;101726.00;;;18.30
58929;BMP180;44713;53.378;10.022;2023-06-22T00:15:36;101724.00;;;18.30
58929;BMP180;44713;53.378;10.022;2023-06-22T00:18:02;101723.00;;;18.30
58929;BMP180;44713;53.378;10.022;2023-06-22T00:20:28;101725.00;;;18.30
58929;BMP180;44713;53.378;10.022;2023-06-22T00:22:54;101728.00;;;18.20
58929;BMP180;44713;53.378;10.022;2023-06-22T00:25:20;101723.00;;;18.20
58929;BMP180;44713;53.378;10.022;2023-06-22T00:27:45;101730.00;;;18.10
58929;BMP180;44713;53.378;10.022;2023-06-22T00:30:11;101734.00;;;18.10
58929;BMP180;44713;53.378;10.022;2023-06-22T00:32:36;101740.00;;;18.10
58929;BMP180;44713;53.378;10.022;2023-06-22T00:35:02;101746.00;;;18.00
58929;BMP180;44713;53.378;10.022;2023-06-22T00:37:28;101747.00;;;17.90
58929;BMP180;44713;53.378;10.022;2023-06-22T00:39:55;101749.00;;;17.90
58929;BMP180;44713;53.378;10.022;2023-06-22T00:42:21;101747.00;;;17.90
58929;BMP180;44713;53.378;10.022;2023-06-22T00:44:46;101744.00;;;17.90
58929;BMP180;44713;53.378;10.022;2023-06-22T00:47:15;101742.00;;;17.80
58929;BMP180;44713;53.378;10.022;2023-06-22T00:49:41;101738.00;;;17.90
58929;BMP180;44713;53.378;10.022;2023-06-22T00:52:07;101739.00;;;17.90
58929;BMP180;44713;53.378;10.022;2023-06-22T00:54:42;101740.00;;;17.90
58929;BMP180;44713;53.378;10.022;2023-06-22T00:57:13;101734.00;;;17.90
58929;BMP180;44713;53.378;10.022;2023-06-22T00:59:42;101740.00;;;17.90
58929;BMP180;44713;53.378;10.022;2023-06-22T01:02:08;101741.00;;;17.80
58929;BMP180;44713;53.378;10.022;2023-06-22T01:04:36;101730.00;;;17.80
58929;BMP180;44713;53.378;10.022;2023-06-22T01:07:29;101735.00;;;17.80
58929;BMP180;44713;53.378;10.022;2023-06-22T01:10:14;101738.00;;;17.80
58929;BMP180;44713;53.378;10.022;2023-06-22T01:13:04;101731.00;;;17.70
58929;BMP180;44713;53.378;10.022;2023-06-22T01:15:38;101727.00;;;17.70
58929;BMP180;44713;53.378;10.022;2023-06-22T01:18:06;101734.00;;;17.60
58929;BMP180;44713;53.378;10.022;2023-06-22T01:20:36;101730.00;;;17.60
58929;BMP180;44713;53.378;10.022;2023-06-22T01:23:26;101733.00;;;17.50
58929;BMP180;44713;53.378;10.022;2023-06-22T01:29:24;101729.00;;;17.60
58929;BMP180;44713;53.378;10.022;2023-06-22T01:31:51;101728.00;;;17.60
58929;BMP180;44713;53.378;10.022;2023-06-22T01:34:17;101720.00;;;17.60
58929;BMP180;44713;53.378;10.022;2023-06-22T01:36:43;101724.00;;;17.60
58929;BMP180;44713;53.378;10.022;2023-06-22T01:39:09;101725.00;;;17.50
58929;BMP180;44713;53.378;10.022;2023-06-22T01:41:37;101723.00;;;17.50
58929;BMP180;44713;53.378;10.022;2023-06-22T01:44:05;101725.00;;;17.40
58929;BMP180;44713;53.378;10.022;2023-06-22T01:46:32;101724.00;;;17.40
58929;BMP180;44713;53.378;10.022;2023-06-22T01:48:57;101723.00;;;17.40
58929;BMP180;44713;53.378;10.022;2023-06-22T01:51:23;101722.00;;;17.30
58929;BMP180;44713;53.378;10.022;2023-06-22T01:53:49;101725.00;;;17.30
58929;BMP180;44713;53.378;10.022;2023-06-22T01:56:17;101730.00;;;17.30
58929;BMP180;44713;53.378;10.022;2023-06-22T01:58:48;101727.00;;;17.30
58929;BMP180;44713;53.378;10.022;2023-06-22T02:01:20;101727.00;;;17.20
58929;BMP180;44713;53.378;10.022;2023-06-22T02:04:03;101723.00;;;17.20
58929;BMP180;44713;53.378;10.022;2023-06-22T02:06:39;101722.00;;;17.20
58929;BMP180;44713;53.378;10.022;2023-06-22T02:09:16;101719.00;;;17.10
58929;BMP180;44713;53.378;10.022;2023-06-22T02:11:44;101725.00;;;17.10
58929;BMP180;44713;53.378;10.022;2023-06-22T02:14:11;101720.00;;;17.00
58929;BMP180;44713;53.378;10.022;2023-06-22T02:16:38;101721.00;;;17.00
58929;BMP180;44713;53.378;10.022;2023-06-22T02:19:04;101712.00;;;17.10
58929;BMP180;44713;53.378;10.022;2023-06-22T02:21:34;101716.00;;;17.10
58929;BMP180;44713;53.378;10.022;2023-06-22T02:23:59;101706.00;;;17.20
58929;BMP180;44713;53.378;10.022;2023-06-22T02:26:25;101701.00;;;17.10
58929;BMP180;44713;53.378;10.022;2023-06-22T02:28:53;101707.00;;;17.10
58929;BMP180;44713;53.378;10.022;2023-06-22T02:31:18;101703.00;;;17.10
58929;BMP180;44713;53.378;10.022;2023-06-22T02:33:45;101706.00;;;17.10
58929;BMP180;44713;53.378;10.022;2023-06-22T02:36:10;101710.00;;;17.00
58929;BMP180;44713;53.378;10.022;2023-06-22T02:38:38;101709.00;;;16.90
58929;BMP180;44713;53.378;10.022;2023-06-22T02:41:10;101712.00;;;16.80
58929;BMP180;44713;53.378;10.022;2023-06-22T02:43:38;101704.00;;;16.90
58929;BMP180;44713;53.378;10.022;2023-06-22T02:46:03;101697.00;;;16.80
58929;BMP180;44713;53.378;10.022;2023-06-22T02:48:28;101698.00;;;16.80
58929;BMP180;44713;53.378;10.022;2023-06-22T02:50:54;101709.00;;;16.70
58929;BMP180;44713;53.378;10.022;2023-06-22T02:53:19;101716.00;;;16.70
58929;BMP180;44713;53.378;10.022;2023-06-22T02:55:46;101716.00;;;16.70
58929;BMP180;44713;53.378;10.022;2023-06-22T02:58:11;101708.00;;;16.60
58929;BMP180;44713;53.378;10.022;2023-06-22T03:00:37;101701.00;;;16.70
58929;BMP180;44713;53.378;10.022;2023-06-22T03:03:04;101703.00;;;16.70
58929;BMP180;44713;53.378;10.022;2023-06-22T03:05:30;101697.00;;;16.80
58929;BMP180;44713;53.378;10.022;2023-06-22T03:07:58;101696.00;;;16.70
58929;BMP180;44713;53.378;10.022;2023-06-22T03:10:23;101706.00;;;16.70
58929;BMP180;44713;53.378;10.022;2023-06-22T03:12:49;101708.00;;;16.70
58929;BMP180;44713;53.378;10.022;2023-06-22T03:15:14;101710.00;;;16.60
58929;BMP180;44713;53.378;10.022;2023-06-22T03:17:40;101708.00;;;16.50
58929;BMP180;44713;53.378;10.022;2023-06-22T03:20:07;101713.00;;;16.50
58929;BMP180;44713;53.378;10.022;2023-06-22T03:22:43;101715.00;;;16.50
58929;BMP180;44713;53.378;10.022;2023-06-22T03:25:09;101713.00;;;16.50
58929;BMP180;44713;53.378;10.022;2023-06-22T03:27:37;101718.00;;;16.40
58929;BMP180;44713;53.378;10.022;2023-06-22T03:30:02;101719.00;;;16.40
58929;BMP180;44713;53.378;10.022;2023-06-22T03:32:28;101720.00;;;16.50
58929;BMP180;44713;53.378;10.022;2023-06-22T03:34:53;101728.00;;;16.50
58929;BMP180;44713;53.378;10.022;2023-06-22T03:37:19;101738.00;;;16.50
58929;BMP180;44713;53.378;10.022;2023-06-22T03:39:44;101735.00;;;16.50
58929;BMP180;44713;53.378;10.022;2023-06-22T03:42:10;101731.00;;;16.50
58929;BMP180;44713;53.378;10.022;2023-06-22T03:44:36;101730.00;;;16.60
58929;BMP180;44713;53.378;10.022;2023-06-22T03:47:03;101742.00;;;16.70
58929;BMP180;44713;53.378;10.022;2023-06-22T03:49:28;101743.00;;;16.70
58929;BMP180;44713;53.378;10.022;2023-06-22T03:51:54;101749.00;;;16.70
58929;BMP180;44713;53.378;10.022;2023-06-22T03:54:19;101740.00;;;16.60
58929;BMP180;44713;53.378;10.022;2023-06-22T03:56:44;101748.00;;;16.70
58929;BMP180;44713;53.378;10.022;2023-06-22T03:59:10;101740.00;;;16.70
58929;BMP180;44713;53.378;10.022;2023-06-22T04:01:35;101755.00;;;16.80
58929;BMP180;44713;53.378;10.022;2023-06-22T04:04:01;101754.00;;;16.80
58929;BMP180;44713;53.378;10.022;2023-06-22T04:06:27;101761.00;;;16.80
58929;BMP180;44713;53.378;10.022;2023-06-22T04:08:52;101757.00;;;16.90
58929;BMP180;44713;53.378;10.022;2023-06-22T04:11:17;101762.00;;;16.90
58929;BMP180;44713;53.378;10.022;2023-06-22T04:13:43;101760.00;;;17.00
58929;BMP180;44713;53.378;10.022;2023-06-22T04:16:09;101761.00;;;17.00
58929;BMP180;44713;53.378;10.022;2023-06-22T04:18:34;101765.00;;;17.00
58929;BMP180;44713;53.378;10.022;2023-06-22T04:21:00;101764.00;;;17.00
58929;BMP180;44713;53.378;10.022;2023-06-22T04:23:25;101767.00;;;17.10
58929;BMP180;44713;53.378;10.022;2023-06-22T04:25:50;101756.00;;;17.10
58929;BMP180;44713;53.378;10.022;2023-06-22T04:28:16;101757.00;;;17.20
58929;BMP180;44713;53.378;10.022;2023-06-22T04:30:42;101762.00;;;17.20
58929;BMP180;44713;53.378;10.022;2023-06-22T04:33:12;101757.00;;;17.30
58929;BMP180;44713;53.378;10.022;2023-06-22T04:35:38;101756.00;;;17.30
58929;BMP180;44713;53.378;10.022;2023-06-22T04:38:07;101757.00;;;17.30
58929;BMP180;44713;53.378;10.022;2023-06-22T04:40:32;101758.00;;;17.40
58929;BMP180;44713;53.378;10.022;2023-06-22T04:42:58;101758.00;;;17.40
58929;BMP180;44713;53.378;10.022;2023-06-22T04:45:27;101752.00;;;17.40
58929;BMP180;44713;53.378;10.022;2023-06-22T04:47:53;101761.00;;;17.40
58929;BMP180;44713;53.378;10.022;2023-06-22T04:50:18;101764.00;;;17.50
58929;BMP180;44713;53.378;10.022;2023-06-22T04:52:46;101758.00;;;17.50
58929;BMP180;44713;53.378;10.022;2023-06-22T04:55:12;101768.00;;;17.60
58929;BMP180;44713;53.378;10.022;2023-06-22T04:57:37;101767.00;;;17.70
58929;BMP180;44713;53.378;10.022;2023-06-22T05:00:05;101763.00;;;17.70
58929;BMP180;44713;53.378;10.022;2023-06-22T05:02:39;101755.00;;;17.70
58929;BMP180;44713;53.378;10.022;2023-06-22T05:05:05;101750.00;;;17.80
58929;BMP180;44713;53.378;10.022;2023-06-22T05:07:35;101759.00;;;17.70
58929;BMP180;44713;53.378;10.022;2023-06-22T05:10:02;101765.00;;;17.80
58929;BMP180;44713;53.378;10.022;2023-06-22T05:12:28;101760.00;;;17.90
58929;BMP180;44713;53.378;10.022;2023-06-22T05:14:54;101755.00;;;17.90
58929;BMP180;44713;53.378;10.022;2023-06-22T05:17:20;101752.00;;;18.00
58929;BMP180;44713;53.378;10.022;2023-06-22T05:19:45;101752.00;;;18.10
58929;BMP180;44713;53.378;10.022;2023-06-22T05:22:14;101756.00;;;18.20
58929;BMP180;44713;53.378;10.022;2023-06-22T05:24:40;101755.00;;;18.30
58929;BMP180;44713;53.378;10.022;2023-06-22T05:27:05;101754.00;;;18.30
58929;BMP180;44713;53.378;10.022;2023-06-22T05:29:31;101755.00;;;18.40
58929;BMP180;44713;53.378;10.022;2023-06-22T05:31:56;101752.00;;;18.50
58929;BMP180;44713;53.378;10.022;2023-06-22T05:34:21;101752.00;;;18.60
58929;BMP180;44713;53.378;10.022;2023-06-22T05:36:47;101755.00;;;18.70
58929;BMP180;44713;53.378;10.022;2023-06-22T05:39:13;101760.00;;;18.80
58929;BMP180;44713;53.378;10.022;2023-06-22T05:41:39;101762.00;;;18.90
58929;BMP180;44713;53.378;10.022;2023-06-22T05:44:05;101757.00;;;19.10
58929;BMP180;44713;53.378;10.022;2023-06-22T05:46:30;101755.00;;;19.10
58929;BMP180;44713;53.378;10.022;2023-06-22T05:48:55;101749.00;;;19.20
58929;BMP180;44713;53.378;10.022;2023-06-22T05:51:21;101754.00;;;19.30
58929;BMP180;44713;53.378;10.022;2023-06-22T05:53:46;101758.00;;;19.30
58929;BMP180;44713;53.378;10.022;2023-06-22T05:56:16;101751.00;;;19.40
58929;BMP180;44713;53.378;10.022;2023-06-22T05:58:41;101745.00;;;19.40
58929;BMP180;44713;53.378;10.022;2023-06-22T06:01:06;101749.00;;;19.50
58929;BMP180;44713;53.378;10.022;2023-06-22T06:03:32;101750.00;;;19.60
58929;BMP180;44713;53.378;10.022;2023-06-22T06:05:57;101758.00;;;19.70
58929;BMP180;44713;53.378;10.022;2023-06-22T06:08:23;101746.00;;;19.70
58929;BMP180;44713;53.378;10.022;2023-06-22T06:10:48;101746.00;;;19.70
58929;BMP180;44713;53.378;10.022;2023-06-22T06:13:13;101745.00;;;19.80
58929;BMP180;44713;53.378;10.022;2023-06-22T06:15:39;101752.00;;;20.00
58929;BMP180;44713;53.378;10.022;2023-06-22T06:18:05;101741.00;;;20.10
58929;BMP180;44713;53.378;10.022;2023-06-22T06:20:31;101740.00;;;20.30
58929;BMP180;44713;53.378;10.022;2023-06-22T06:22:57;101738.00;;;20.30
58929;BMP180;44713;53.378;10.022;2023-06-22T06:25:22;101737.00;;;20.40
58929;BMP180;44713;53.378;10.022;2023-06-22T06:27:50;101733.00;;;20.50
58929;BMP180;44713;53.378;10.022;2023-06-22T06:30:17;101726.00;;;20.60
58929;BMP180;44713;53.378;10.022;2023-06-22T06:32:44;101721.00;;;20.60
58929;BMP180;44713;53.378;10.022;2023-06-22T06:35:33;101730.00;;;20.70
58929;BMP180;44713;53.378;10.022;2023-06-22T06:38:21;101730.00;;;20.80
58929;BMP180;44713;53.378;10.022;2023-06-22T06:40:46;101730.00;;;21.00
58929;BMP180;44713;53.378;10.022;2023-06-22T06:43:14;101722.00;;;21.00
58929;BMP180;44713;53.378;10.022;2023-06-22T06:45:39;101733.00;;;21.10
58929;BMP180;44713;53.378;10.022;2023-06-22T06:48:04;101725.00;;;21.10
58929;BMP180;44713;53.378;10.022;2023-06-22T06:50:30;101724.00;;;21.20
58929;BMP180;44713;53.378;10.022;2023-06-22T06:52:55;101722.00;;;21.30
58929;BMP180;44713;53.378;10.022;2023-06-22T06:55:21;101723.00;;;21.30
58929;BMP180;44713;53.378;10.022;2023-06-22T06:57:49;101709.00;;;21.40
58929;BMP180;44713;53.378;10.022;2023-06-22T07:00:15;101718.00;;;21.50
58929;BMP180;44713;53.378;10.022;2023-06-22T07:02:42;101717.00;;;21.60
58929;BMP180;44713;53.378;10.022;2023-06-22T07:05:09;101718.00;;;21.60
58929;BMP180;44713;53.378;10.022;2023-06-22T07:07:35;101713.00;;;21.80
58929;BMP180;44713;53.378;10.022;2023-06-22T07:10:00;101708.00;;;21.90
58929;BMP180;44713;53.378;10.022;2023-06-22T07:12:26;101721.00;;;21.90
58929;BMP180;44713;53.378;10.022;2023-06-22T07:15:01;101722.00;;;21.90
58929;BMP180;44713;53.378;10.022;2023-06-22T07:17:26;101717.00;;;22.00
58929;BMP180;44713;53.378;10.022;2023-06-22T07:19:52;101718.00;;;22.00
58929;BMP180;44713;53.378;10.022;2023-06-22T07:22:17;101717.00;;;22.10
58929;BMP180;44713;53.378;10.022;2023-06-22T07:24:42;101728.00;;;22.20
58929;BMP180;44713;53.378;10.022;2023-06-22T07:27:08;101732.00;;;22.20
58929;BMP180;44713;53.378;10.022;2023-06-22T07:29:36;101732.00;;;22.30
58929;BMP180;44713;53.378;10.022;2023-06-22T07:32:01;101726.00;;;22.30
58929;BMP180;44713;53.378;10.022;2023-06-22T07:34:29;101723.00;;;22.30
58929;BMP180;44713;53.378;10.022;2023-06-22T07:36:55;101732.00;;;22.40
58929;BMP180;44713;53.378;10.022;2023-06-22T07:39:21;101733.00;;;22.30
58929;BMP180;44713;53.378;10.022;2023-06-22T07:41:51;101718.00;;;22.40
58929;BMP180;44713;53.378;10.022;2023-06-22T07:44:16;101726.00;;;22.40
58929;BMP180;44713;53.378;10.022;2023-06-22T07:46:42;101733.00;;;22.50
58929;BMP180;44713;53.378;10.022;2023-06-22T07:49:07;101731.00;;;22.70
58929;BMP180;44713;53.378;10.022;2023-06-22T07:51:33;101729.00;;;22.80
58929;BMP180;44713;53.378;10.022;2023-06-22T07:53:59;101727.00;;;22.90
58929;BMP180;44713;53.378;10.022;2023-06-22T07:56:24;101726.00;;;23.00
58929;BMP180;44713;53.378;10.022;2023-06-22T07:58:50;101723.00;;;23.10
58929;BMP180;44713;53.378;10.022;2023-06-22T08:01:15;101725.00;;;23.20
58929;BMP180;44713;53.378;10.022;2023-06-22T08:03:41;101711.00;;;23.20
58929;BMP180;44713;53.378;10.022;2023-06-22T08:06:07;101717.00;;;23.40
58929;BMP180;44713;53.378;10.022;2023-06-22T08:08:34;101718.00;;;23.50
58929;BMP180;44713;53.378;10.022;2023-06-22T08:11:00;101722.00;;;23.50
58929;BMP180;44713;53.378;10.022;2023-06-22T08:13:25;101720.00;;;23.60
58929;BMP180;44713;53.378;10.022;2023-06-22T08:15:50;101724.00;;;23.70
58929;BMP180;44713;53.378;10.022;2023-06-22T08:18:16;101718.00;;;23.80
58929;BMP180;44713;53.378;10.022;2023-06-22T08:20:42;101720.00;;;23.90
58929;BMP180;44713;53.378;10.022;2023-06-22T08:23:07;101726.00;;;23.90
58929;BMP180;44713;53.378;10.022;2023-06-22T08:25:33;101715.00;;;23.90
58929;BMP180;44713;53.378;10.022;2023-06-22T08:28:00;101706.00;;;24.10
58929;BMP180;44713;53.378;10.022;2023-06-22T08:30:25;101705.00;;;24.20
58929;BMP180;44713;53.378;10.022;2023-06-22T08:32:50;101709.00;;;24.40
58929;BMP180;44713;53.378;10.022;2023-06-22T08:35:16;101711.00;;;24.50
58929;BMP180;44713;53.378;10.022;2023-06-22T08:37:41;101713.00;;;24.60
58929;BMP180;44713;53.378;10.022;2023-06-22T08:40:08;101713.00;;;24.70
58929;BMP180;44713;53.378;10.022;2023-06-22T08:42:37;101707.00;;;24.80
58929;BMP180;44713;53.378;10.022;2023-06-22T08:45:04;101701.00;;;25.00
58929;BMP180;44713;53.378;10.022;2023-06-22T08:47:29;101695.00;;;25.00
58929;BMP180;44713;53.378;10.022;2023-06-22T08:49:55;101697.00;;;25.10
58929;BMP180;44713;53.378;10.022;2023-06-22T08:52:20;101693.00;;;25.20
58929;BMP180;44713;53.378;10.022;2023-06-22T08:54:46;101687.00;;;25.40
58929;BMP180;44713;53.378;10.022;2023-06-22T08:57:12;101697.00;;;25.50
58929;BMP180;44713;53.378;10.022;2023-06-22T08:59:37;101694.00;;;25.60
58929;BMP180;44713;53.378;10.022;2023-06-22T09:02:02;101690.00;;;25.70
58929;BMP180;44713;53.378;10.022;2023-06-22T09:04:28;101687.00;;;25.80
58929;BMP180;44713;53.378;10.022;2023-06-22T09:06:53;101687.00;;;26.00
58929;BMP180;44713;53.378;10.022;2023-06-22T09:09:18;101683.00;;;25.90
58929;BMP180;44713;53.378;10.022;2023-06-22T09:11:44;101686.00;;;25.90
58929;BMP180;44713;53.378;10.022;2023-06-22T09:14:12;101685.00;;;25.90
58929;BMP180;44713;53.378;10.022;2023-06-22T09:16:38;101690.00;;;26.10
58929;BMP180;44713;53.378;10.022;2023-06-22T09:19:03;101688.00;;;26.20
58929;BMP180;44713;53.378;10.022;2023-06-22T09:21:28;101677.00;;;26.30
58929;BMP180;44713;53.378;10.022;2023-06-22T09:23:54;101681.00;;;26.40
58929;BMP180;44713;53.378;10.022;2023-06-22T09:26:20;101682.00;;;26.70
58929;BMP180;44713;53.378;10.022;2023-06-22T09:28:46;101676.00;;;27.10
58929;BMP180;44713;53.378;10.022;2023-06-22T09:31:12;101675.00;;;27.30
58929;BMP180;44713;53.378;10.022;2023-06-22T09:33:37;101681.00;;;27.40
58929;BMP180;44713;53.378;10.022;2023-06-22T09:36:05;101665.00;;;27.60
58929;BMP180;44713;53.378;10.022;2023-06-22T09:38:37;101662.00;;;27.80
58929;BMP180;44713;53.378;10.022;2023-06-22T09:41:03;101664.00;;;28.10
58929;BMP180;44713;53.378;10.022;2023-06-22T09:43:29;101662.00;;;28.30
58929;BMP180;44713;53.378;10.022;2023-06-22T09:45:54;101668.00;;;28.40
58929;BMP180;44713;53.378;10.022;2023-06-22T09:48:20;101659.00;;;28.30
58929;BMP180;44713;53.378;10.022;2023-06-22T09:50:45;101649.00;;;28.20
58929;BMP180;44713;53.378;10.022;2023-06-22T09:53:11;101659.00;;;28.30
58929;BMP180;44713;53.378;10.022;2023-06-22T09:55:36;101659.00;;;28.50
58929;BMP180;44713;53.378;10.022;2023-06-22T09:58:01;101644.00;;;28.80
58929;BMP180;44713;53.378;10.022;2023-06-22T10:00:27;101652.00;;;28.50
58929;BMP180;44713;53.378;10.022;2023-06-22T10:02:52;101649.00;;;28.70
58929;BMP180;44713;53.378;10.022;2023-06-22T10:05:17;101648.00;;;28.90
58929;BMP180;44713;53.378;10.022;2023-06-22T10:07:43;101646.00;;;29.20
58929;BMP180;44713;53.378;10.022;2023-06-22T10:10:12;101646.00;;;28.50
58929;BMP180;44713;53.378;10.022;2023-06-22T10:12:57;101639.00;;;28.80
58929;BMP180;44713;53.378;10.022;2023-06-22T10:15:23;101635.00;;;29.00
58929;BMP180;44713;53.378;10.022;2023-06-22T10:17:48;101634.00;;;29.20
58929;BMP180;44713;53.378;10.022;2023-06-22T10:20:14;101642.00;;;29.30
58929;BMP180;44713;53.378;10.022;2023-06-22T10:22:41;101634.00;;;29.30
58929;BMP180;44713;53.378;10.022;2023-06-22T10:25:07;101634.00;;;29.40
58929;BMP180;44713;53.378;10.022;2023-06-22T10:27:33;101637.00;;;29.60
58929;BMP180;44713;53.378;10.022;2023-06-22T10:29:58;101628.00;;;29.80
58929;BMP180;44713;53.378;10.022;2023-06-22T10:32:24;101626.00;;;30.00
58929;BMP180;44713;53.378;10.022;2023-06-22T10:34:49;101615.00;;;30.00
58929;BMP180;44713;53.378;10.022;2023-06-22T10:37:14;101613.00;;;30.10
58929;BMP180;44713;53.378;10.022;2023-06-22T10:39:40;101621.00;;;30.40
58929;BMP180;44713;53.378;10.022;2023-06-22T10:42:05;101608.00;;;30.30
58929;BMP180;44713;53.378;10.022;2023-06-22T10:44:31;101604.00;;;30.50
58929;BMP180;44713;53.378;10.022;2023-06-22T10:46:56;101603.00;;;30.20
58929;BMP180;44713;53.378;10.022;2023-06-22T10:49:21;101601.00;;;30.10
58929;BMP180;44713;53.378;10.022;2023-06-22T10:51:46;101602.00;;;29.80
58929;BMP180;44713;53.378;10.022;2023-06-22T10:54:12;101592.00;;;30.40
58929;BMP180;44713;53.378;10.022;2023-06-22T10:56:39;101603.00;;;30.70
58929;BMP180;44713;53.378;10.022;2023-06-22T10:59:05;101606.00;;;30.40
58929;BMP180;44713;53.378;10.022;2023-06-22T11:01:30;101597.00;;;30.50
58929;BMP180;44713;53.378;10.022;2023-06-22T11:03:57;101608.00;;;30.50
58929;BMP180;44713;53.378;10.022;2023-06-22T11:06:22;101601.00;;;30.20
58929;BMP180;44713;53.378;10.022;2023-06-22T11:08:47;101595.00;;;30.00
58929;BMP180;44713;53.378;10.022;2023-06-22T11:11:13;101597.00;;;30.30
58929;BMP180;44713;53.378;10.022;2023-06-22T11:13:38;101597.00;;;30.30
58929;BMP180;44713;53.378;10.022;2023-06-22T11:16:04;101595.00;;;30.30
58929;BMP180;44713;53.378;10.022;2023-06-22T11:18:31;101590.00;;;30.50
58929;BMP180;44713;53.378;10.022;2023-06-22T11:20:56;101599.00;;;30.70
58929;BMP180;44713;53.378;10.022;2023-06-22T11:23:21;101588.00;;;30.60
58929;BMP180;44713;53.378;10.022;2023-06-22T11:25:47;101596.00;;;30.60
58929;BMP180;44713;53.378;10.022;2023-06-22T11:28:12;101596.00;;;30.40
58929;BMP180;44713;53.378;10.022;2023-06-22T11:30:38;101591.00;;;30.50
58929;BMP180;44713;53.378;10.022;2023-06-22T11:33:03;101597.00;;;30.40
58929;BMP180;44713;53.378;10.022;2023-06-22T11:35:28;101586.00;;;30.70
58929;BMP180;44713;53.378;10.022;2023-06-22T11:37:54;101588.00;;;30.40
58929;BMP180;44713;53.378;10.022;2023-06-22T11:40:21;101575.00;;;30.70
58929;BMP180;44713;53.378;10.022;2023-06-22T11:42:48;101583.00;;;31.10
58929;BMP180;44713;53.378;10.022;2023-06-22T11:45:13;101568.00;;;31.20
58929;BMP180;44713;53.378;10.022;2023-06-22T11:47:38;101560.00;;;30.80
58929;BMP180;44713;53.378;10.022;2023-06-22T11:50:05;101566.00;;;31.30
58929;BMP180;44713;53.378;10.022;2023-06-22T11:52:30;101574.00;;;31.60
58929;BMP180;44713;53.378;10.022;2023-06-22T11:54:56;101569.00;;;31.60
58929;BMP180;44713;53.378;10.022;2023-06-22T11:57:21;101559.00;;;31.60
58929;BMP180;44713;53.378;10.022;2023-06-22T11:59:46;101558.00;;;31.60
58929;BMP180;44713;53.378;10.022;2023-06-22T12:02:12;101550.00;;;30.90
58929;BMP180;44713;53.378;10.022;2023-06-22T12:04:37;101547.00;;;31.10
58929;BMP180;44713;53.378;10.022;2023-06-22T12:07:03;101545.00;;;31.50
58929;BMP180;44713;53.378;10.022;2023-06-22T12:09:28;101545.00;;;31.50
58929;BMP180;44713;53.378;10.022;2023-06-22T12:11:54;101542.00;;;31.10
58929;BMP180;44713;53.378;10.022;2023-06-22T12:14:19;101550.00;;;30.80
58929;BMP180;44713;53.378;10.022;2023-06-22T12:16:44;101538.00;;;30.60
58929;BMP180;44713;53.378;10.022;2023-06-22T12:19:11;101544.00;;;30.30
58929;BMP180;44713;53.378;10.022;2023-06-22T12:21:37;101540.00;;;30.40
58929;BMP180;44713;53.378;10.022;2023-06-22T12:24:02;101534.00;;;30.50
58929;BMP180;44713;53.378;10.022;2023-06-22T12:26:28;101529.00;;;30.40
58929;BMP180;44713;53.378;10.022;2023-06-22T12:28:53;101523.00;;;30.20
58929;BMP180;44713;53.378;10.022;2023-06-22T12:31:19;101518.00;;;30.20
58929;BMP180;44713;53.378;10.022;2023-06-22T12:33:44;101512.00;;;30.30
58929;BMP180;44713;53.378;10.022;2023-06-22T12:36:09;101519.00;;;30.50
58929;BMP180;44713;53.378;10.022;2023-06-22T12:38:35;101521.00;;;30.00
58929;BMP180;44713;53.378;10.022;2023-06-22T12:41:00;101520.00;;;29.60
58929;BMP180;44713;53.378;10.022;2023-06-22T12:43:25;101516.00;;;29.30
58929;BMP180;44713;53.378;10.022;2023-06-22T12:45:51;101514.00;;;29.10
58929;BMP180;44713;53.378;10.022;2023-06-22T12:48:16;101511.00;;;29.00
58929;BMP180;44713;53.378;10.022;2023-06-22T12:50:42;101519.00;;;29.10
58929;BMP180;44713;53.378;10.022;2023-06-22T12:53:07;101511.00;;;29.00
58929;BMP180;44713;53.378;10.022;2023-06-22T12:55:33;101510.00;;;28.90
58929;BMP180;44713;53.378;10.022;2023-06-22T12:57:58;101505.00;;;29.00
58929;BMP180;44713;53.378;10.022;2023-06-22T13:00:23;101504.00;;;29.00
58929;BMP180;44713;53.378;10.022;2023-06-22T13:02:49;101507.00;;;28.90
58929;BMP180;44713;53.378;10.022;2023-06-22T13:05:14;101503.00;;;29.00
58929;BMP180;44713;53.378;10.022;2023-06-22T13:07:40;101504.00;;;28.90
58929;BMP180;44713;53.378;10.022;2023-06-22T13:10:07;101504.00;;;28.80
58929;BMP180;44713;53.378;10.022;2023-06-22T13:12:32;101512.00;;;28.80
58929;BMP180;44713;53.378;10.022;2023-06-22T13:14:58;101507.00;;;28.80
58929;BMP180;44713;53.378;10.022;2023-06-22T13:17:23;101506.00;;;28.80
58929;BMP180;44713;53.378;10.022;2023-06-22T13:19:48;101500.00;;;28.70
58929;BMP180;44713;53.378;10.022;2023-06-22T13:22:43;101493.00;;;28.70
58929;BMP180;44713;53.378;10.022;2023-06-22T13:25:09;101496.00;;;28.60
58929;BMP180;44713;53.378;10.022;2023-06-22T13:27:41;101491.00;;;28.50
58929;BMP180;44713;53.378;10.022;2023-06-22T13:30:08;101486.00;;;28.40
58929;BMP180;44713;53.378;10.022;2023-06-22T13:32:33;101492.00;;;28.40
58929;BMP180;44713;53.378;10.022;2023-06-22T13:34:59;101487.00;;;28.40
58929;BMP180;44713;53.378;10.022;2023-06-22T13:37:25;101486.00;;;28.30
58929;BMP180;44713;53.378;10.022;2023-06-22T13:39:51;101486.00;;;28.20
58929;BMP180;44713;53.378;10.022;2023-06-22T13:42:16;101473.00;;;28.30
58929;BMP180;44713;53.378;10.022;2023-06-22T13:44:41;101469.00;;;28.30